Time;durP1;ratioP1;P1;durP2;ratioP2;P2;SDS_P1;SDS_P2;PMS_P1;PMS_P2;Temp;Humidity;BMP_temperature;BMP_pressure;BME280_temperature;BME280_humidity;BME280_pressure;Samples;Min_cycle;Max_cycle;Signal;HPM_P1;HPM_P2
2023/12/15 00:00:21;;;;;;;34.63;19.10;;;;;;;;;;5032243;28;20197;-73
2023/12/15 00:02:46;;;;;;;38.17;18.30;;;;;;;;;;5038082;28;20248;-73
2023/12/15 00:05:12;;;;;;;34.43;18.80;;;;;;;;;;5035779;28;20228;-73
2023/12/15 00:07:38;;;;;;;36.70;19.17;;;;;;;;;;5018498;28;20885;-73
2023/12/15 00:10:04;;;;;;;34.13;18.37;;;;;;;;;;5030690;28;20273;-73
2023/12/15 00:12:29;;;;;;;44.10;19.40;;;;;;;;;;5008943;28;20239;-73
2023/12/15 00:14:54;;;;;;;40.13;19.07;;;;;;;;;;5013056;28;20278;-73
2023/12/15 00:17:20;;;;;;;34.93;18.30;;;;;;;;;;5015357;28;20183;-73
2023/12/15 00:19:45;;;;;;;37.00;19.43;;;;;;;;;;5013246;28;20245;-73
2023/12/15 00:22:11;;;;;;;38.17;18.93;;;;;;;;;;4994150;28;20714;-73
2023/12/15 00:24:36;;;;;;;37.83;19.67;;;;;;;;;;4980235;28;20706;-72
2023/12/15 00:27:02;;;;;;;40.50;19.60;;;;;;;;;;5024443;28;20507;-72
2023/12/15 00:29:28;;;;;;;37.03;18.07;;;;;;;;;;4992016;28;20578;-72
2023/12/15 00:31:53;;;;;;;35.33;18.60;;;;;;;;;;5018407;28;20198;-72
2023/12/15 00:34:18;;;;;;;39.63;19.73;;;;;;;;;;4994821;28;21573;-72
2023/12/15 00:36:44;;;;;;;35.23;18.70;;;;;;;;;;4980312;28;22611;-72
2023/12/15 00:39:09;;;;;;;37.00;18.83;;;;;;;;;;5002798;28;20201;-72
2023/12/15 00:41:35;;;;;;;36.77;18.50;;;;;;;;;;4994874;28;20201;-72
2023/12/15 00:44:03;;;;;;;37.70;19.77;;;;;;;;;;5017568;28;20190;-72
2023/12/15 00:46:28;;;;;;;34.53;18.73;;;;;;;;;;4979382;28;20194;-72
2023/12/15 00:48:54;;;;;;;37.93;19.20;;;;;;;;;;5004395;28;20187;-72
2023/12/15 00:51:19;;;;;;;38.73;18.37;;;;;;;;;;4978972;28;20241;-72
2023/12/15 00:53:44;;;;;;;39.03;19.07;;;;;;;;;;5000575;28;20410;-72
2023/12/15 00:56:10;;;;;;;39.87;17.50;;;;;;;;;;4982891;28;20183;-72
2023/12/15 00:58:35;;;;;;;40.73;19.80;;;;;;;;;;5012849;28;20261;-72
2023/12/15 01:01:01;;;;;;;36.70;18.87;;;;;;;;;;5021457;28;20182;-73
2023/12/15 01:03:27;;;;;;;37.70;18.73;;;;;;;;;;4999717;28;20682;-72
2023/12/15 01:05:53;;;;;;;36.10;19.47;;;;;;;;;;4998710;28;20345;-73
2023/12/15 01:08:18;;;;;;;37.50;19.23;;;;;;;;;;4999502;28;20719;-73
2023/12/15 01:10:43;;;;;;;37.03;18.20;;;;;;;;;;5002149;28;20238;-73
2023/12/15 01:13:09;;;;;;;40.77;20.33;;;;;;;;;;5036547;28;20229;-73
2023/12/15 01:15:34;;;;;;;36.97;18.93;;;;;;;;;;5037712;28;20273;-73
2023/12/15 01:18:00;;;;;;;39.93;19.57;;;;;;;;;;5036555;28;20235;-73
2023/12/15 01:20:25;;;;;;;37.53;19.33;;;;;;;;;;5016839;28;20235;-73
2023/12/15 01:22:51;;;;;;;34.77;18.77;;;;;;;;;;5015047;28;20217;-73
2023/12/15 01:25:16;;;;;;;39.33;20.60;;;;;;;;;;5017117;28;20198;-73
2023/12/15 01:27:41;;;;;;;39.23;20.10;;;;;;;;;;5027338;28;20181;-73
2023/12/15 01:30:07;;;;;;;40.23;20.67;;;;;;;;;;5023519;28;20194;-73
2023/12/15 01:32:32;;;;;;;34.67;19.37;;;;;;;;;;5029469;28;20202;-73
2023/12/15 01:34:58;;;;;;;41.50;19.53;;;;;;;;;;5000911;28;20585;-73
2023/12/15 01:37:24;;;;;;;43.17;20.63;;;;;;;;;;5017525;28;20718;-73
2023/12/15 01:39:50;;;;;;;39.67;20.90;;;;;;;;;;5016363;28;20263;-73
2023/12/15 01:42:15;;;;;;;38.83;19.63;;;;;;;;;;5027322;28;20186;-73
2023/12/15 01:44:41;;;;;;;39.20;21.13;;;;;;;;;;5037329;28;20185;-73
2023/12/15 01:47:10;;;;;;;44.10;21.53;;;;;;;;;;5034895;28;20208;-73
2023/12/15 01:49:35;;;;;;;37.60;20.13;;;;;;;;;;5013338;28;20186;-73
2023/12/15 01:52:01;;;;;;;39.50;21.77;;;;;;;;;;5017166;28;20202;-73
2023/12/15 01:54:26;;;;;;;37.20;20.17;;;;;;;;;;5015710;28;20193;-73
2023/12/15 01:56:52;;;;;;;37.07;20.43;;;;;;;;;;5017763;28;20193;-73
2023/12/15 01:59:17;;;;;;;37.37;20.63;;;;;;;;;;5033815;28;20220;-73
2023/12/15 02:01:42;;;;;;;38.70;22.00;;;;;;;;;;5013547;28;20189;-73
2023/12/15 02:04:08;;;;;;;36.70;20.77;;;;;;;;;;5018059;28;20194;-73
2023/12/15 02:06:33;;;;;;;41.50;21.87;;;;;;;;;;5016870;28;20548;-73
2023/12/15 02:08:59;;;;;;;40.13;21.50;;;;;;;;;;5017891;28;20561;-73
2023/12/15 02:11:24;;;;;;;38.35;21.45;;;;;;;;;;5000005;28;20338;-73
2023/12/15 02:13:49;;;;;;;39.73;21.33;;;;;;;;;;5040024;28;20272;-73
2023/12/15 02:16:15;;;;;;;41.40;21.93;;;;;;;;;;5031896;28;20563;-73
2023/12/15 02:18:40;;;;;;;43.40;22.00;;;;;;;;;;4999193;28;20220;-74
2023/12/15 02:21:06;;;;;;;42.47;22.70;;;;;;;;;;4997863;28;20276;-73
2023/12/15 02:23:31;;;;;;;46.00;23.47;;;;;;;;;;5000729;28;20558;-73
2023/12/15 02:25:57;;;;;;;40.83;22.90;;;;;;;;;;5022227;28;20280;-73
2023/12/15 02:28:22;;;;;;;41.53;22.97;;;;;;;;;;5038328;28;20185;-73
2023/12/15 02:30:48;;;;;;;39.20;23.03;;;;;;;;;;5032286;28;20750;-73
2023/12/15 02:33:14;;;;;;;40.30;24.70;;;;;;;;;;5024708;28;20309;-74
2023/12/15 02:35:40;;;;;;;43.60;24.20;;;;;;;;;;5037732;28;20190;-73
2023/12/15 02:38:09;;;;;;;40.60;23.50;;;;;;;;;;5044957;28;20264;-73
2023/12/15 02:40:35;;;;;;;44.80;24.77;;;;;;;;;;5033562;28;20553;-74
2023/12/15 02:43:01;;;;;;;48.03;25.87;;;;;;;;;;5042250;28;20196;-73
2023/12/15 02:45:26;;;;;;;43.77;26.33;;;;;;;;;;5038806;28;20185;-74
2023/12/15 02:47:52;;;;;;;49.27;27.40;;;;;;;;;;5039571;28;20186;-73
2023/12/15 02:50:17;;;;;;;52.43;27.03;;;;;;;;;;5019185;28;20207;-73
2023/12/15 02:52:43;;;;;;;45.20;25.27;;;;;;;;;;5035909;28;20294;-73
2023/12/15 02:55:10;;;;;;;54.53;28.57;;;;;;;;;;5038678;28;20194;-73
2023/12/15 02:57:36;;;;;;;54.40;27.93;;;;;;;;;;5036216;28;20189;-73
2023/12/15 03:00:03;;;;;;;58.70;30.20;;;;;;;;;;5038667;28;20555;-73
2023/12/15 03:02:28;;;;;;;57.17;29.90;;;;;;;;;;5044963;28;20177;-74
2023/12/15 03:04:54;;;;;;;62.73;30.73;;;;;;;;;;5037753;28;20201;-73
2023/12/15 03:07:19;;;;;;;61.73;30.70;;;;;;;;;;5038651;28;20186;-73
2023/12/15 03:09:44;;;;;;;60.07;30.50;;;;;;;;;;5035690;28;20182;-73
2023/12/15 03:12:10;;;;;;;61.57;31.83;;;;;;;;;;5028864;28;20281;-73
2023/12/15 03:14:36;;;;;;;59.40;31.37;;;;;;;;;;5002007;28;20183;-73
2023/12/15 03:17:01;;;;;;;64.87;30.40;;;;;;;;;;5024624;28;20189;-73
2023/12/15 03:19:26;;;;;;;62.20;31.83;;;;;;;;;;5000477;28;20634;-73
2023/12/15 03:21:52;;;;;;;60.10;31.90;;;;;;;;;;5012323;28;20266;-73
2023/12/15 03:24:17;;;;;;;55.47;30.70;;;;;;;;;;5003264;28;20312;-73
2023/12/15 03:26:43;;;;;;;66.00;31.47;;;;;;;;;;5012085;28;20206;-74
2023/12/15 03:29:08;;;;;;;75.80;34.20;;;;;;;;;;4981443;28;20572;-74
2023/12/15 03:31:33;;;;;;;59.83;31.10;;;;;;;;;;5012828;28;20190;-74
2023/12/15 03:33:59;;;;;;;71.70;31.67;;;;;;;;;;5001460;28;20213;-75
2023/12/15 03:36:24;;;;;;;68.13;32.60;;;;;;;;;;5005798;28;20720;-74
2023/12/15 03:38:50;;;;;;;78.68;33.13;;;;;;;;;;5016877;28;20237;-74
2023/12/15 03:41:15;;;;;;;68.65;31.95;;;;;;;;;;5014473;28;20186;-74
2023/12/15 03:43:40;;;;;;;76.85;33.00;;;;;;;;;;5000244;28;20187;-74
2023/12/15 03:46:06;;;;;;;75.63;34.25;;;;;;;;;;5018474;28;20195;-74
2023/12/15 03:48:31;;;;;;;77.20;35.10;;;;;;;;;;4999988;28;20187;-74
2023/12/15 03:50:57;;;;;;;82.68;35.80;;;;;;;;;;5015552;28;20195;-74
2023/12/15 03:53:22;;;;;;;79.70;34.35;;;;;;;;;;5023018;28;20214;-74
2023/12/15 03:55:47;;;;;;;76.85;34.17;;;;;;;;;;5018905;28;20198;-74
2023/12/15 03:58:13;;;;;;;70.63;33.47;;;;;;;;;;5022386;28;20603;-74
2023/12/15 04:00:38;;;;;;;81.55;34.78;;;;;;;;;;5017592;28;20241;-74
2023/12/15 04:03:04;;;;;;;81.53;34.90;;;;;;;;;;5020567;28;20217;-74
2023/12/15 04:05:29;;;;;;;84.00;36.17;;;;;;;;;;5020504;28;20221;-73
2023/12/15 04:07:54;;;;;;;79.90;35.17;;;;;;;;;;5020880;28;20182;-73
2023/12/15 04:10:20;;;;;;;80.90;33.58;;;;;;;;;;5028026;28;20594;-73
2023/12/15 04:12:45;;;;;;;81.45;33.90;;;;;;;;;;5018958;28;20226;-73
2023/12/15 04:15:11;;;;;;;79.72;34.95;;;;;;;;;;5022596;28;20194;-73
2023/12/15 04:17:36;;;;;;;76.45;35.67;;;;;;;;;;4996379;28;20190;-73
2023/12/15 04:20:02;;;;;;;75.50;34.58;;;;;;;;;;5000422;28;20191;-73
2023/12/15 04:22:27;;;;;;;88.20;36.85;;;;;;;;;;5005704;28;20261;-73
2023/12/15 04:24:53;;;;;;;81.03;34.53;;;;;;;;;;5026786;28;20202;-73
2023/12/15 04:27:18;;;;;;;79.30;34.17;;;;;;;;;;5030130;28;20201;-73
2023/12/15 04:29:44;;;;;;;84.47;35.00;;;;;;;;;;5005972;28;20243;-74
2023/12/15 04:32:09;;;;;;;88.32;35.53;;;;;;;;;;5020489;28;20329;-73
2023/12/15 04:34:37;;;;;;;87.55;36.05;;;;;;;;;;5019488;28;20534;-73
2023/12/15 04:37:03;;;;;;;81.30;34.28;;;;;;;;;;5022369;28;20189;-73
2023/12/15 04:39:28;;;;;;;84.03;35.63;;;;;;;;;;4995080;28;20719;-73
2023/12/15 04:41:53;;;;;;;91.75;36.10;;;;;;;;;;4999919;28;20187;-73
2023/12/15 04:44:19;;;;;;;98.57;37.28;;;;;;;;;;5026142;28;20635;-73
2023/12/15 04:46:44;;;;;;;89.05;35.33;;;;;;;;;;5003380;28;20195;-73
2023/12/15 04:49:10;;;;;;;88.90;35.72;;;;;;;;;;5024253;28;20664;-73
2023/12/15 04:51:35;;;;;;;89.53;36.08;;;;;;;;;;5022542;28;20678;-73
2023/12/15 04:54:00;;;;;;;90.28;35.97;;;;;;;;;;5009198;28;20186;-74
2023/12/15 04:56:26;;;;;;;84.10;35.75;;;;;;;;;;5017255;28;20194;-74
2023/12/15 04:58:51;;;;;;;94.60;36.17;;;;;;;;;;5023419;28;20197;-74
2023/12/15 05:01:17;;;;;;;96.70;37.13;;;;;;;;;;5004931;28;20327;-74
2023/12/15 05:03:44;;;;;;;92.40;36.88;;;;;;;;;;5025688;28;20182;-74
2023/12/15 05:06:17;;;;;;;101.25;38.60;;;;;;;;;;5001541;28;20198;-74
2023/12/15 05:08:43;;;;;;;90.88;36.10;;;;;;;;;;5021078;28;20194;-74
2023/12/15 05:11:08;;;;;;;94.65;37.80;;;;;;;;;;5005703;28;20727;-74
2023/12/15 05:13:33;;;;;;;86.93;36.75;;;;;;;;;;5009659;28;20654;-74
2023/12/15 05:15:59;;;;;;;97.25;37.80;;;;;;;;;;5008210;28;20523;-74
2023/12/15 05:18:24;;;;;;;94.82;35.95;;;;;;;;;;5005615;28;20653;-74
2023/12/15 05:20:49;;;;;;;102.82;36.03;;;;;;;;;;5018844;28;20190;-74
2023/12/15 05:23:15;;;;;;;92.68;36.05;;;;;;;;;;4998368;28;20209;-74
2023/12/15 05:25:40;;;;;;;89.80;37.13;;;;;;;;;;5025023;28;20634;-74
2023/12/15 05:28:06;;;;;;;111.22;39.70;;;;;;;;;;5026086;28;20281;-74
2023/12/15 05:30:31;;;;;;;103.55;37.60;;;;;;;;;;5013864;28;20195;-74
2023/12/15 05:32:57;;;;;;;99.72;39.42;;;;;;;;;;5019932;28;20223;-74
2023/12/15 05:35:23;;;;;;;99.35;38.28;;;;;;;;;;4991958;28;20233;-74
2023/12/15 05:37:49;;;;;;;100.93;37.95;;;;;;;;;;5020324;28;20779;-74
2023/12/15 05:40:15;;;;;;;102.82;38.00;;;;;;;;;;5016640;28;20194;-74
2023/12/15 05:42:41;;;;;;;100.90;37.40;;;;;;;;;;5030652;28;20174;-74
2023/12/15 05:45:08;;;;;;;115.95;38.58;;;;;;;;;;5018599;28;20194;-74
2023/12/15 05:47:35;;;;;;;102.82;38.78;;;;;;;;;;4998711;28;20182;-73
2023/12/15 05:50:01;;;;;;;121.05;38.20;;;;;;;;;;4998204;28;20190;-74
2023/12/15 05:52:26;;;;;;;103.22;38.28;;;;;;;;;;5023376;28;20657;-73
2023/12/15 05:54:51;;;;;;;95.57;37.17;;;;;;;;;;5023438;28;20213;-73
2023/12/15 05:57:17;;;;;;;90.10;37.83;;;;;;;;;;4997094;28;20820;-73
2023/12/15 05:59:42;;;;;;;98.38;36.92;;;;;;;;;;5006700;28;20361;-73
2023/12/15 06:02:09;;;;;;;96.72;39.38;;;;;;;;;;5002391;28;20185;-73
2023/12/15 06:04:34;;;;;;;103.47;39.38;;;;;;;;;;5021423;28;20206;-73
2023/12/15 06:07:00;;;;;;;95.68;38.30;;;;;;;;;;4996339;28;20191;-74
2023/12/15 06:09:25;;;;;;;99.50;37.65;;;;;;;;;;5023005;28;20194;-74
2023/12/15 06:11:52;;;;;;;102.28;38.65;;;;;;;;;;5021009;28;20230;-74
2023/12/15 06:14:20;;;;;;;100.60;37.83;;;;;;;;;;5000053;28;20195;-74
2023/12/15 06:16:46;;;;;;;102.18;37.75;;;;;;;;;;4999108;28;20625;-74
2023/12/15 06:19:11;;;;;;;94.55;36.40;;;;;;;;;;5024269;28;20225;-74
2023/12/15 06:21:37;;;;;;;102.40;37.33;;;;;;;;;;5023132;28;20252;-73
2023/12/15 06:24:03;;;;;;;101.68;37.45;;;;;;;;;;5017230;28;20248;-73
2023/12/15 06:26:28;;;;;;;90.68;36.85;;;;;;;;;;5014065;28;20277;-73
2023/12/15 06:28:54;;;;;;;100.72;37.05;;;;;;;;;;5012327;28;20276;-73
2023/12/15 06:31:19;;;;;;;92.72;35.22;;;;;;;;;;5008878;28;20236;-73
2023/12/15 06:33:45;;;;;;;103.15;37.10;;;;;;;;;;5024532;28;20717;-73
2023/12/15 06:36:11;;;;;;;95.80;37.25;;;;;;;;;;5016747;28;20669;-73
2023/12/15 06:38:39;;;;;;;103.10;37.80;;;;;;;;;;5015957;28;20551;-74
2023/12/15 06:41:05;;;;;;;99.53;37.15;;;;;;;;;;4974935;28;20194;-74
2023/12/15 06:43:31;;;;;;;92.10;37.17;;;;;;;;;;5000441;28;20200;-74
2023/12/15 06:45:56;;;;;;;84.00;35.95;;;;;;;;;;4980229;28;20262;-73
2023/12/15 06:48:22;;;;;;;91.35;34.65;;;;;;;;;;5004896;28;20190;-73
2023/12/15 06:50:47;;;;;;;92.38;35.53;;;;;;;;;;5007345;28;20194;-73
2023/12/15 06:53:13;;;;;;;86.13;35.78;;;;;;;;;;5004206;28;20213;-74
2023/12/15 06:55:38;;;;;;;98.00;37.22;;;;;;;;;;5015276;28;20236;-74
2023/12/15 06:58:04;;;;;;;90.10;36.17;;;;;;;;;;5001542;28;20209;-74
2023/12/15 07:00:29;;;;;;;86.93;35.30;;;;;;;;;;4997123;28;20598;-74
2023/12/15 07:02:55;;;;;;;86.65;35.28;;;;;;;;;;4965162;28;20194;-74
2023/12/15 07:05:20;;;;;;;93.47;35.95;;;;;;;;;;4999192;28;20510;-74
2023/12/15 07:07:45;;;;;;;90.23;37.07;;;;;;;;;;5016813;28;20603;-74
2023/12/15 07:10:11;;;;;;;100.27;36.67;;;;;;;;;;4995160;28;20178;-74
2023/12/15 07:12:36;;;;;;;91.97;35.37;;;;;;;;;;5026359;28;20326;-74
2023/12/15 07:15:02;;;;;;;96.17;37.37;;;;;;;;;;5030895;28;20178;-74
2023/12/15 07:17:27;;;;;;;108.47;38.33;;;;;;;;;;5047885;28;20724;-74
2023/12/15 07:19:53;;;;;;;99.15;36.88;;;;;;;;;;5041482;28;20322;-74
2023/12/15 07:22:18;;;;;;;90.50;37.00;;;;;;;;;;5039328;28;20243;-74
2023/12/15 07:24:44;;;;;;;96.30;37.33;;;;;;;;;;5037657;28;20412;-74
2023/12/15 07:27:09;;;;;;;92.37;36.47;;;;;;;;;;5018754;28;20193;-74
2023/12/15 07:29:35;;;;;;;97.43;36.40;;;;;;;;;;5046481;28;20251;-74
2023/12/15 07:32:00;;;;;;;107.97;36.90;;;;;;;;;;5044624;28;20292;-74
2023/12/15 07:34:26;;;;;;;92.90;36.90;;;;;;;;;;5051075;28;20193;-74
2023/12/15 07:36:51;;;;;;;101.80;37.70;;;;;;;;;;5046274;28;20251;-74
2023/12/15 07:39:21;;;;;;;99.32;35.78;;;;;;;;;;5047426;28;20208;-74
2023/12/15 07:41:48;;;;;;;100.20;38.60;;;;;;;;;;5042408;28;20291;-74
2023/12/15 07:44:13;;;;;;;101.38;36.22;;;;;;;;;;5047389;28;20185;-74
2023/12/15 07:46:38;;;;;;;95.47;37.40;;;;;;;;;;5036612;28;20190;-74
2023/12/15 07:49:05;;;;;;;85.78;36.25;;;;;;;;;;5039021;28;20185;-74
2023/12/15 07:51:30;;;;;;;90.88;37.17;;;;;;;;;;5048382;28;20186;-74
2023/12/15 07:53:56;;;;;;;97.57;35.67;;;;;;;;;;5042513;28;20210;-74
2023/12/15 07:56:23;;;;;;;94.22;36.00;;;;;;;;;;5040677;28;20297;-74
2023/12/15 07:58:51;;;;;;;92.68;36.42;;;;;;;;;;5042077;28;20598;-74
2023/12/15 08:01:21;;;;;;;96.77;36.37;;;;;;;;;;5035558;28;20197;-74
2023/12/15 08:03:47;;;;;;;98.80;36.10;;;;;;;;;;5038768;28;20676;-74
2023/12/15 08:06:14;;;;;;;107.20;38.00;;;;;;;;;;5044889;28;20244;-74
2023/12/15 08:08:40;;;;;;;85.05;35.60;;;;;;;;;;5046050;28;20197;-74
2023/12/15 08:11:06;;;;;;;93.60;37.95;;;;;;;;;;5030593;28;20335;-74
2023/12/15 08:13:32;;;;;;;95.85;36.70;;;;;;;;;;5026773;28;20666;-74
2023/12/15 08:15:57;;;;;;;92.57;36.37;;;;;;;;;;5007700;28;20185;-74
2023/12/15 08:18:23;;;;;;;91.10;37.05;;;;;;;;;;4994674;28;20201;-74
2023/12/15 08:20:48;;;;;;;92.20;35.42;;;;;;;;;;5022765;28;20681;-74
2023/12/15 08:23:14;;;;;;;96.05;35.70;;;;;;;;;;5027458;28;20201;-74
2023/12/15 08:25:40;;;;;;;92.53;36.17;;;;;;;;;;5026922;28;20716;-74
2023/12/15 08:28:05;;;;;;;84.35;34.15;;;;;;;;;;5025844;28;20186;-74
2023/12/15 08:30:31;;;;;;;98.32;34.20;;;;;;;;;;5008922;28;20190;-74
2023/12/15 08:32:58;;;;;;;81.35;34.53;;;;;;;;;;5025756;28;20222;-74
2023/12/15 08:35:24;;;;;;;86.07;34.70;;;;;;;;;;5025074;28;20222;-74
2023/12/15 08:37:49;;;;;;;85.57;34.30;;;;;;;;;;5008031;28;20210;-74
2023/12/15 08:40:15;;;;;;;90.20;34.97;;;;;;;;;;5009481;28;20291;-74
2023/12/15 08:42:40;;;;;;;94.18;33.85;;;;;;;;;;5012203;28;20239;-74
2023/12/15 08:45:07;;;;;;;81.22;32.00;;;;;;;;;;5029208;28;20637;-74
2023/12/15 08:47:32;;;;;;;78.32;32.03;;;;;;;;;;5028230;28;20182;-74
2023/12/15 08:49:58;;;;;;;80.13;32.33;;;;;;;;;;5028759;28;20581;-74
2023/12/15 08:52:23;;;;;;;82.65;34.45;;;;;;;;;;5027647;28;20585;-74
2023/12/15 08:54:49;;;;;;;72.22;32.00;;;;;;;;;;5024897;28;20205;-74
2023/12/15 08:57:14;;;;;;;82.22;33.42;;;;;;;;;;5028361;28;20638;-74
2023/12/15 08:59:40;;;;;;;76.43;33.13;;;;;;;;;;5009810;28;20183;-74
2023/12/15 09:02:06;;;;;;;82.25;32.05;;;;;;;;;;5005716;28;20189;-73
2023/12/15 09:04:32;;;;;;;74.10;31.27;;;;;;;;;;5006480;28;20315;-74
2023/12/15 09:06:57;;;;;;;78.07;31.35;;;;;;;;;;4996978;28;20193;-74
2023/12/15 09:09:24;;;;;;;70.82;30.90;;;;;;;;;;5024152;28;20285;-75
2023/12/15 09:11:49;;;;;;;79.88;31.88;;;;;;;;;;5021875;28;20253;-74
2023/12/15 09:14:15;;;;;;;74.82;31.63;;;;;;;;;;5007171;28;20186;-74
2023/12/15 09:16:42;;;;;;;64.63;30.33;;;;;;;;;;5006382;28;21381;-74
2023/12/15 09:19:08;;;;;;;68.65;30.38;;;;;;;;;;5025232;28;20206;-74
2023/12/15 09:21:34;;;;;;;58.05;28.73;;;;;;;;;;5022265;28;20529;-74
2023/12/15 09:23:59;;;;;;;67.13;31.00;;;;;;;;;;5024605;28;20189;-74
2023/12/15 09:26:25;;;;;;;64.93;28.17;;;;;;;;;;5024342;28;20193;-74
2023/12/15 09:28:51;;;;;;;63.15;28.80;;;;;;;;;;5006950;28;20235;-74
2023/12/15 09:31:16;;;;;;;65.70;28.13;;;;;;;;;;5024074;28;20675;-74
2023/12/15 09:33:42;;;;;;;70.25;28.42;;;;;;;;;;5023328;28;20210;-74
2023/12/15 09:36:08;;;;;;;56.80;28.63;;;;;;;;;;5007251;28;20225;-74
2023/12/15 09:38:33;;;;;;;68.30;27.70;;;;;;;;;;5025205;28;20477;-74
2023/12/15 09:40:59;;;;;;;58.90;28.48;;;;;;;;;;5025374;28;20205;-74
2023/12/15 09:43:24;;;;;;;62.45;27.52;;;;;;;;;;5004655;28;20320;-74
2023/12/15 09:45:50;;;;;;;64.10;27.23;;;;;;;;;;5003263;28;20210;-74
2023/12/15 09:48:19;;;;;;;54.05;26.23;;;;;;;;;;5021559;28;20190;-74
2023/12/15 09:50:54;;;;;;;60.40;27.83;;;;;;;;;;5022678;28;20704;-73
2023/12/15 09:53:20;;;;;;;58.60;27.42;;;;;;;;;;5010252;28;20284;-74
2023/12/15 09:55:46;;;;;;;57.17;27.83;;;;;;;;;;5005051;28;20565;-74
2023/12/15 09:58:12;;;;;;;60.75;26.50;;;;;;;;;;5024012;28;20265;-74
2023/12/15 10:00:38;;;;;;;57.08;24.80;;;;;;;;;;5006235;28;20182;-74
2023/12/15 10:03:04;;;;;;;54.35;25.20;;;;;;;;;;5004714;28;20182;-74
2023/12/15 10:05:30;;;;;;;59.95;26.17;;;;;;;;;;5006273;28;20193;-74
2023/12/15 10:07:56;;;;;;;62.33;26.20;;;;;;;;;;5023572;28;20555;-74
2023/12/15 10:10:23;;;;;;;59.20;26.20;;;;;;;;;;5023232;28;20182;-74
2023/12/15 10:12:49;;;;;;;50.03;22.33;;;;;;;;;;5023528;28;20277;-74
2023/12/15 10:15:15;;;;;;;50.28;23.30;;;;;;;;;;5021059;28;20190;-74
2023/12/15 10:17:40;;;;;;;47.88;22.73;;;;;;;;;;5022554;28;20244;-74
2023/12/15 10:20:08;;;;;;;52.03;22.65;;;;;;;;;;5022822;28;20182;-74
2023/12/15 10:22:34;;;;;;;44.83;22.75;;;;;;;;;;5021063;28;20247;-74
2023/12/15 10:24:59;;;;;;;50.22;22.48;;;;;;;;;;5005568;28;20186;-74
2023/12/15 10:27:25;;;;;;;51.70;21.35;;;;;;;;;;5023334;28;20189;-74
2023/12/15 10:29:50;;;;;;;43.80;20.85;;;;;;;;;;5022775;28;20712;-74
2023/12/15 10:32:15;;;;;;;50.75;21.25;;;;;;;;;;5023357;28;20233;-74
2023/12/15 10:34:42;;;;;;;46.83;20.33;;;;;;;;;;5003746;28;20186;-74
2023/12/15 10:37:08;;;;;;;43.65;18.67;;;;;;;;;;4992915;28;20615;-74
2023/12/15 10:39:33;;;;;;;42.45;18.20;;;;;;;;;;5022164;28;20225;-74
2023/12/15 10:41:59;;;;;;;48.25;18.92;;;;;;;;;;5022166;28;20190;-74
2023/12/15 10:44:26;;;;;;;43.38;17.35;;;;;;;;;;5022727;28;20186;-74
2023/12/15 10:46:53;;;;;;;38.38;17.77;;;;;;;;;;5022033;28;20186;-74
2023/12/15 10:49:19;;;;;;;37.05;15.73;;;;;;;;;;4986025;28;20201;-74
2023/12/15 10:51:47;;;;;;;42.55;16.55;;;;;;;;;;5022813;28;20178;-74
2023/12/15 10:54:13;;;;;;;32.50;14.73;;;;;;;;;;5004200;28;20194;-73
2023/12/15 10:56:39;;;;;;;41.30;14.38;;;;;;;;;;5023688;28;20190;-74
2023/12/15 10:59:09;;;;;;;37.03;14.23;;;;;;;;;;4988460;28;20228;-74
2023/12/15 11:01:37;;;;;;;38.65;13.88;;;;;;;;;;5001812;28;20261;-74
2023/12/15 11:04:16;;;;;;;33.45;13.63;;;;;;;;;;5004143;28;20562;-74
2023/12/15 11:06:41;;;;;;;30.42;11.95;;;;;;;;;;5004544;28;20261;-74
2023/12/15 11:09:07;;;;;;;29.13;12.90;;;;;;;;;;5023115;28;20282;-74
2023/12/15 11:11:33;;;;;;;29.30;12.15;;;;;;;;;;5002127;28;20237;-74
2023/12/15 11:14:06;;;;;;;37.67;12.10;;;;;;;;;;5003141;28;20324;-74
2023/12/15 11:16:35;;;;;;;34.42;11.30;;;;;;;;;;5004315;28;20190;-74
2023/12/15 11:19:01;;;;;;;33.35;11.10;;;;;;;;;;5020498;28;20275;-74
2023/12/15 11:21:27;;;;;;;32.15;10.88;;;;;;;;;;5022886;28;20231;-74
2023/12/15 11:24:04;;;;;;;33.92;9.82;;;;;;;;;;5022140;28;20201;-74
2023/12/15 11:26:32;;;;;;;31.95;10.05;;;;;;;;;;5021089;28;20197;-74
2023/12/15 11:29:08;;;;;;;41.25;10.15;;;;;;;;;;5006571;28;20186;-74
2023/12/15 11:31:34;;;;;;;31.25;9.65;;;;;;;;;;5003709;28;20185;-74
2023/12/15 11:34:01;;;;;;;31.38;9.48;;;;;;;;;;5004324;28;20249;-74
2023/12/15 11:36:28;;;;;;;31.40;9.30;;;;;;;;;;5022938;28;20202;-73
2023/12/15 11:38:54;;;;;;;35.00;8.80;;;;;;;;;;5002812;28;20182;-74
2023/12/15 11:41:22;;;;;;;29.67;9.73;;;;;;;;;;5004250;28;20190;-73
2023/12/15 11:43:49;;;;;;;34.30;9.13;;;;;;;;;;5003768;28;20186;-73
2023/12/15 11:46:14;;;;;;;29.10;8.13;;;;;;;;;;5022244;28;20281;-74
2023/12/15 11:48:41;;;;;;;35.85;8.63;;;;;;;;;;5003693;28;20830;-73
2023/12/15 11:51:08;;;;;;;30.75;8.45;;;;;;;;;;5022062;28;20277;-73
2023/12/15 11:53:36;;;;;;;26.70;8.23;;;;;;;;;;5021808;28;20267;-75
2023/12/15 11:56:04;;;;;;;35.10;8.23;;;;;;;;;;5002010;28;20194;-73
2023/12/15 11:58:30;;;;;;;28.20;7.57;;;;;;;;;;5021859;28;20255;-74
2023/12/15 12:00:56;;;;;;;31.55;8.38;;;;;;;;;;5019620;28;20198;-74
2023/12/15 12:03:22;;;;;;;38.70;8.98;;;;;;;;;;5002132;28;20190;-73
2023/12/15 12:05:53;;;;;;;24.95;6.93;;;;;;;;;;5021460;28;20257;-74
2023/12/15 12:08:22;;;;;;;28.65;6.95;;;;;;;;;;5003204;28;20514;-74
2023/12/15 12:10:50;;;;;;;26.85;6.57;;;;;;;;;;5020783;28;20191;-73
2023/12/15 12:13:16;;;;;;;26.63;7.60;;;;;;;;;;5021192;28;20202;-73
2023/12/15 12:15:52;;;;;;;36.70;6.78;;;;;;;;;;5022491;28;20201;-73
2023/12/15 12:18:19;;;;;;;33.00;6.85;;;;;;;;;;5025137;28;20206;-73
2023/12/15 12:20:45;;;;;;;29.48;6.55;;;;;;;;;;5006297;28;21322;-73
2023/12/15 12:23:10;;;;;;;31.15;6.85;;;;;;;;;;5024279;28;20194;-73
2023/12/15 12:25:41;;;;;;;30.35;7.13;;;;;;;;;;5007496;28;20272;-73
2023/12/15 12:28:06;;;;;;;25.95;6.97;;;;;;;;;;5023812;28;20194;-73
2023/12/15 12:30:31;;;;;;;26.23;6.22;;;;;;;;;;5024037;28;20221;-73
2023/12/15 12:32:57;;;;;;;33.60;7.78;;;;;;;;;;4987875;28;20206;-74
2023/12/15 12:35:22;;;;;;;26.60;6.78;;;;;;;;;;5006240;28;20182;-73
2023/12/15 12:37:48;;;;;;;26.13;6.47;;;;;;;;;;5007686;28;20230;-73
2023/12/15 12:40:13;;;;;;;30.17;7.05;;;;;;;;;;5023783;28;20197;-73
2023/12/15 12:42:38;;;;;;;28.98;6.43;;;;;;;;;;5007429;28;20182;-74
2023/12/15 12:45:06;;;;;;;26.52;5.80;;;;;;;;;;5006358;28;20194;-74
2023/12/15 12:47:36;;;;;;;23.42;5.95;;;;;;;;;;5016529;28;20213;-73
2023/12/15 12:50:03;;;;;;;26.08;5.88;;;;;;;;;;5013126;28;20198;-73
2023/12/15 12:52:29;;;;;;;27.23;5.40;;;;;;;;;;5020846;28;20218;-73
2023/12/15 12:54:54;;;;;;;26.05;5.38;;;;;;;;;;5005834;28;20301;-73
2023/12/15 12:57:19;;;;;;;20.67;5.15;;;;;;;;;;5004995;28;21330;-73
2023/12/15 12:59:45;;;;;;;24.50;5.05;;;;;;;;;;4987734;28;20198;-73
2023/12/15 13:02:10;;;;;;;26.83;5.57;;;;;;;;;;4995094;28;20556;-73
2023/12/15 13:04:36;;;;;;;23.98;5.85;;;;;;;;;;4977739;28;20259;-73
2023/12/15 13:07:02;;;;;;;28.52;6.00;;;;;;;;;;4993554;28;21093;-73
2023/12/15 13:09:27;;;;;;;29.33;6.10;;;;;;;;;;4993843;28;20292;-73
2023/12/15 13:11:53;;;;;;;27.75;6.70;;;;;;;;;;4975597;28;20226;-73
2023/12/15 13:14:18;;;;;;;27.05;6.63;;;;;;;;;;4982840;28;20202;-73
2023/12/15 13:16:45;;;;;;;26.20;5.53;;;;;;;;;;4983199;28;20200;-73
2023/12/15 13:19:11;;;;;;;29.05;6.13;;;;;;;;;;5000351;28;20213;-73
2023/12/15 13:21:37;;;;;;;19.20;5.57;;;;;;;;;;5000531;28;20194;-73
2023/12/15 13:24:03;;;;;;;23.65;5.60;;;;;;;;;;5001474;28;20198;-73
2023/12/15 13:26:28;;;;;;;22.30;5.25;;;;;;;;;;5001177;28;20213;-73
2023/12/15 13:28:55;;;;;;;30.13;5.45;;;;;;;;;;5002204;28;20482;-73
2023/12/15 13:31:20;;;;;;;20.10;5.07;;;;;;;;;;5000298;28;21281;-73
2023/12/15 13:33:47;;;;;;;31.13;5.60;;;;;;;;;;5001437;28;20757;-73
2023/12/15 13:36:17;;;;;;;29.75;5.70;;;;;;;;;;5001396;28;20661;-73
2023/12/15 13:38:44;;;;;;;22.83;5.40;;;;;;;;;;5012155;28;20532;-73
2023/12/15 13:41:10;;;;;;;29.45;5.60;;;;;;;;;;5016526;28;20200;-73
2023/12/15 13:43:37;;;;;;;23.55;6.22;;;;;;;;;;5001891;28;20194;-73
2023/12/15 13:46:11;;;;;;;25.23;5.55;;;;;;;;;;5024637;28;20182;-73
2023/12/15 13:48:37;;;;;;;24.33;5.05;;;;;;;;;;5006417;28;20201;-74
2023/12/15 13:51:03;;;;;;;20.75;5.43;;;;;;;;;;5006499;28;20625;-73
2023/12/15 13:53:29;;;;;;;25.27;5.03;;;;;;;;;;4998767;28;20297;-73
2023/12/15 13:55:55;;;;;;;19.35;5.00;;;;;;;;;;5000527;28;20186;-73
2023/12/15 13:58:20;;;;;;;26.98;5.82;;;;;;;;;;4983246;28;20243;-73
2023/12/15 14:00:47;;;;;;;24.25;5.20;;;;;;;;;;4999760;28;20210;-73
2023/12/15 14:03:12;;;;;;;25.48;5.38;;;;;;;;;;5000238;28;20194;-73
2023/12/15 14:05:38;;;;;;;22.35;6.00;;;;;;;;;;5001535;28;20197;-73
2023/12/15 14:08:03;;;;;;;32.08;6.35;;;;;;;;;;4982247;28;20289;-72
2023/12/15 14:10:29;;;;;;;26.40;6.05;;;;;;;;;;4999439;28;20183;-73